TimePST,TemperatureF,Dew PointF,Humidity,Sea Level PressureIn,VisibilityMPH,Wind Direction,Wind SpeedMPH,Gust SpeedMPH,PrecipitationIn,Events,Conditions,WindDirDegrees,DateUTC
12:00 AM,44.6,42.8,93,29.99,6.0,NNW,4.6,-,N/A,,Mostly Cloudy,340,2012-12-30 08:00:00
1:08 AM,44.6,42.8,93,29.99,9.0,NW,5.8,-,N/A,,Mostly Cloudy,320,2012-12-30 09:08:00
1:21 AM,44.6,42.8,93,29.99,8.0,NW,5.8,-,N/A,,Mostly Cloudy,310,2012-12-30 09:21:00
1:51 AM,45.0,41.0,86,30.01,9.0,NW,6.9,-,N/A,,Mostly Cloudy,320,2012-12-30 09:51:00
2:05 AM,44.6,41.0,87,29.99,10.0,NW,6.9,-,N/A,,Mostly Cloudy,320,2012-12-30 10:05:00
2:12 AM,44.6,41.0,87,29.99,10.0,NW,5.8,-,N/A,,Scattered Clouds,320,2012-12-30 10:12:00
2:18 AM,44.6,41.0,87,29.99,10.0,NNW,4.6,-,N/A,,Mostly Cloudy,330,2012-12-30 10:18:00
2:25 AM,44.6,42.8,93,29.99,10.0,North,3.5,-,N/A,,Mostly Cloudy,360,2012-12-30 10:25:00
2:49 AM,44.6,41.0,87,29.98,10.0,North,6.9,-,N/A,,Mostly Cloudy,350,2012-12-30 10:49:00
2:51 AM,45.0,41.0,86,30.00,10.0,NNW,5.8,-,N/A,,Mostly Cloudy,340,2012-12-30 10:51:00
3:04 AM,44.6,42.8,93,29.98,10.0,NW,4.6,-,N/A,,Overcast,310,2012-12-30 11:04:00
3:15 AM,44.6,42.8,93,29.98,10.0,NW,5.8,-,N/A,,Mostly Cloudy,320,2012-12-30 11:15:00
3:22 AM,44.6,41.0,87,29.98,10.0,North,5.8,-,N/A,,Mostly Cloudy,350,2012-12-30 11:22:00
3:33 AM,44.6,42.8,93,29.97,10.0,NW,3.5,-,N/A,,Mostly Cloudy,320,2012-12-30 11:33:00
3:46 AM,44.6,42.8,93,29.97,10.0,WNW,4.6,-,N/A,,Overcast,300,2012-12-30 11:46:00
4:02 AM,44.6,42.8,93,29.97,10.0,WNW,6.9,-,N/A,,Overcast,290,2012-12-30 12:02:00
4:13 AM,44.6,41.0,87,29.97,10.0,WNW,8.1,-,N/A,,Mostly Cloudy,290,2012-12-30 12:13:00
4:30 AM,44.6,39.2,81,29.97,10.0,West,9.2,-,N/A,,Scattered Clouds,280,2012-12-30 12:30:00
4:51 AM,45.0,39.0,80,29.98,10.0,West,8.1,-,N/A,,Partly Cloudy,280,2012-12-30 12:51:00
5:12 AM,44.6,37.4,76,29.96,10.0,West,9.2,-,N/A,,Mostly Cloudy,280,2012-12-30 13:12:00
5:31 AM,44.6,37.4,76,29.96,10.0,WNW,8.1,-,N/A,,Scattered Clouds,290,2012-12-30 13:31:00
5:51 AM,44.1,37.9,79,29.99,10.0,West,9.2,-,N/A,,Partly Cloudy,280,2012-12-30 13:51:00
6:51 AM,44.1,37.0,76,29.99,10.0,West,8.1,-,N/A,,Clear,280,2012-12-30 14:51:00
7:13 AM,44.6,37.4,76,29.97,10.0,WNW,6.9,-,N/A,,Scattered Clouds,290,2012-12-30 15:13:00
7:23 AM,44.6,39.2,81,29.97,10.0,WNW,5.8,-,N/A,,Mostly Cloudy,300,2012-12-30 15:23:00
7:51 AM,44.1,41.0,89,30.00,10.0,WNW,5.8,-,N/A,,Mostly Cloudy,300,2012-12-30 15:51:00
7:55 AM,44.6,41.0,87,29.98,10.0,WNW,6.9,-,N/A,,Scattered Clouds,290,2012-12-30 15:55:00
8:51 AM,46.0,39.0,76,30.01,10.0,West,9.2,-,N/A,,Clear,280,2012-12-30 16:51:00
9:16 AM,46.4,39.2,76,30.00,10.0,WNW,6.9,-,N/A,,Mostly Cloudy,300,2012-12-30 17:16:00
9:51 AM,46.9,39.0,74,30.02,10.0,NW,8.1,-,N/A,,Mostly Cloudy,310,2012-12-30 17:51:00
10:10 AM,48.2,39.2,71,30.00,10.0,NW,8.1,-,N/A,,Scattered Clouds,310,2012-12-30 18:10:00
10:42 AM,48.2,37.4,66,30.00,10.0,WNW,6.9,-,N/A,,Mostly Cloudy,300,2012-12-30 18:42:00
10:51 AM,48.9,39.9,71,30.01,10.0,NW,6.9,-,N/A,,Overcast,310,2012-12-30 18:51:00
11:51 AM,46.9,39.9,77,29.98,10.0,NW,6.9,-,N/A,,Overcast,320,2012-12-30 19:51:00
12:15 PM,46.4,41.0,81,29.95,10.0,NW,8.1,-,N/A,,Overcast,320,2012-12-30 20:15:00
12:43 PM,46.4,41.0,81,29.93,10.0,NW,9.2,-,N/A,,Overcast,320,2012-12-30 20:43:00
12:51 PM,46.9,41.0,80,29.95,10.0,NW,9.2,-,N/A,,Mostly Cloudy,320,2012-12-30 20:51:00
1:00 PM,46.4,41.0,81,29.93,10.0,NNW,8.1,-,N/A,,Mostly Cloudy,330,2012-12-30 21:00:00
1:43 PM,46.4,41.0,81,29.92,10.0,NW,11.5,-,N/A,,Mostly Cloudy,320,2012-12-30 21:43:00
1:51 PM,46.9,41.0,80,29.94,10.0,NW,10.4,-,N/A,,Overcast,320,2012-12-30 21:51:00
1:54 PM,46.4,41.0,81,29.92,10.0,NW,11.5,-,N/A,,Overcast,310,2012-12-30 21:54:00
2:51 PM,48.0,37.0,66,29.93,10.0,NW,12.7,-,N/A,,Clear,320,2012-12-30 22:51:00
3:51 PM,46.9,37.0,68,29.94,10.0,NW,11.5,-,N/A,,Clear,320,2012-12-30 23:51:00
4:51 PM,46.0,37.9,73,29.94,10.0,NW,9.2,-,N/A,,Clear,310,2012-12-31 00:51:00
5:51 PM,46.0,34.0,63,29.97,10.0,NNW,8.1,-,N/A,,Clear,330,2012-12-31 01:51:00
6:51 PM,46.9,33.1,59,29.98,10.0,NNW,16.1,25.3,N/A,,Partly Cloudy,340,2012-12-31 02:51:00
8:51 PM,46.0,35.1,66,30.03,10.0,North,11.5,19.6,N/A,,Clear,350,2012-12-31 04:51:00
9:51 PM,46.0,35.1,66,30.05,10.0,North,12.7,23.0,N/A,,Clear,350,2012-12-31 05:51:00
10:51 PM,46.0,35.1,66,30.07,10.0,North,9.2,-,N/A,,Clear,360,2012-12-31 06:51:00
11:51 PM,46.0,35.1,66,30.08,10.0,North,15.0,-,N/A,,Clear,10,2012-12-31 07:51:00